Alpena, MI (49707)

6:56 PM EST on February 08, 2016 (GMT -0500)
APRSWXNET | | Change Station
CLOSE
Current Station
Personal Weather Station
Location: Alpena, MI
Elevation: 593 ft
Nearby Weather Stations

Elev 593 ft 45.05 °N, 83.45 °W | Updated 17 minutes ago

Overcast
Overcast
35 °F
Feels Like 35 °F
N
1
Wind Variable Wind from NNW
Gusts 4.0 mph

Today
High -- | Low -- °F
--% Chance of Precip.
Yesterday
High -- | Low -- °F
Precip. -- in
Pressure 29.62 in
Visibility 7.0 miles
Clouds Overcast 700 ft
Windchill 35 °F
Dew Point 33 °F
Humidity 92%
Rainfall in
Snow Depth Not available.
7:45 AM 5:51 PM
New Moon, 0% visible
METAR KAPN 082354Z AUTO 34007KT 7SM OVC007 02/00 A2960 RMK AO2 SLP030 T00170000 10050 20017 51007
Pressure 29.62 in
Visibility 7.0 miles
Clouds Overcast 700 ft
Windchill 35 °F
Dew Point 33 °F
Humidity 92%
Rainfall in
Snow Depth Not available.
7:45 AM 5:51 PM
New Moon, 0% visible
METAR KAPN 082354Z AUTO 34007KT 7SM OVC007 02/00 A2960 RMK AO2 SLP030 T00170000 10050 20017 51007

10-Day Weather Forecast

Almanac

Astronomy

Feb. 08, 2016 Rise Set
Actual Time
Civil Twilight
Nautical Twilight
Astronomical Twilight
Moon
Length of Visible Light
Length of Day
Tomorrow will be .
, % of the Moon is Illuminated

Today's Extremes

State Highs State Lows

Community

WunderPhotos

Upload Photos

1,891,527 photos uploaded!

WunderBlog® & News

Nearby

Air Quality

  Air Quality AQ Index Pollutant
Not available.

Snow Depth

Station Depth Elevation

Earthquake Activity

City Distance Mag. Time & Date
Minimum magnitude displayed is 2.5.

Coastal Water Temperatures

Place Temperature

Stations

Nearby Weather Stations

Station Location Temp. Windchill Dew Point Humidity Wind Precip. Elev Updated Type
                   

Watches & Warnings

There are currently no watches in effect.